sensor_id;sensor_type;location;lat;lon;timestamp;P1;durP1;ratioP1;P2;durP2;ratioP2
83232;SDS011;73119;42.642;23.332;2024-01-16T00:01:46;5.32;;;3.47;;
83232;SDS011;73119;42.642;23.332;2024-01-16T00:04:13;4.78;;;3.45;;
83232;SDS011;73119;42.642;23.332;2024-01-16T00:06:41;6.80;;;3.90;;
83232;SDS011;73119;42.642;23.332;2024-01-16T00:09:08;7.57;;;3.85;;
83232;SDS011;73119;42.642;23.332;2024-01-16T00:11:40;4.85;;;3.45;;
83232;SDS011;73119;42.642;23.332;2024-01-16T00:14:06;9.73;;;5.18;;
83232;SDS011;73119;42.642;23.332;2024-01-16T00:16:32;8.38;;;5.70;;
83232;SDS011;73119;42.642;23.332;2024-01-16T00:18:58;4.13;;;3.53;;
83232;SDS011;73119;42.642;23.332;2024-01-16T00:21:24;7.47;;;3.85;;
83232;SDS011;73119;42.642;23.332;2024-01-16T00:23:50;5.15;;;3.85;;
83232;SDS011;73119;42.642;23.332;2024-01-16T00:26:20;11.45;;;5.28;;
83232;SDS011;73119;42.642;23.332;2024-01-16T00:28:46;8.35;;;4.00;;
83232;SDS011;73119;42.642;23.332;2024-01-16T00:31:12;6.43;;;3.78;;
83232;SDS011;73119;42.642;23.332;2024-01-16T00:33:38;9.02;;;3.58;;
83232;SDS011;73119;42.642;23.332;2024-01-16T00:36:05;6.93;;;4.35;;
83232;SDS011;73119;42.642;23.332;2024-01-16T00:38:34;7.88;;;4.65;;
83232;SDS011;73119;42.642;23.332;2024-01-16T00:41:00;8.57;;;4.90;;
83232;SDS011;73119;42.642;23.332;2024-01-16T00:43:26;11.20;;;5.25;;
83232;SDS011;73119;42.642;23.332;2024-01-16T00:45:52;7.55;;;4.40;;
83232;SDS011;73119;42.642;23.332;2024-01-16T00:48:18;8.52;;;4.13;;
83232;SDS011;73119;42.642;23.332;2024-01-16T00:50:45;6.68;;;5.35;;
83232;SDS011;73119;42.642;23.332;2024-01-16T00:55:41;4.15;;;3.15;;
83232;SDS011;73119;42.642;23.332;2024-01-16T00:58:07;3.33;;;2.95;;
83232;SDS011;73119;42.642;23.332;2024-01-16T01:00:33;5.53;;;3.90;;
83232;SDS011;73119;42.642;23.332;2024-01-16T01:03:02;4.93;;;3.42;;
83232;SDS011;73119;42.642;23.332;2024-01-16T01:05:28;7.65;;;4.65;;
83232;SDS011;73119;42.642;23.332;2024-01-16T01:07:57;10.00;;;4.28;;
83232;SDS011;73119;42.642;23.332;2024-01-16T01:10:23;7.95;;;4.53;;
83232;SDS011;73119;42.642;23.332;2024-01-16T01:12:49;10.25;;;3.83;;
83232;SDS011;73119;42.642;23.332;2024-01-16T01:15:17;5.95;;;3.08;;
83232;SDS011;73119;42.642;23.332;2024-01-16T01:17:43;10.73;;;4.38;;
83232;SDS011;73119;42.642;23.332;2024-01-16T01:20:09;6.15;;;3.60;;
83232;SDS011;73119;42.642;23.332;2024-01-16T01:22:37;6.03;;;3.90;;
83232;SDS011;73119;42.642;23.332;2024-01-16T01:25:04;8.50;;;4.13;;
83232;SDS011;73119;42.642;23.332;2024-01-16T01:27:30;6.30;;;3.65;;
83232;SDS011;73119;42.642;23.332;2024-01-16T01:29:56;4.88;;;3.80;;
83232;SDS011;73119;42.642;23.332;2024-01-16T01:32:23;1.40;;;1.30;;
83232;SDS011;73119;42.642;23.332;2024-01-16T01:34:49;3.28;;;2.28;;
83232;SDS011;73119;42.642;23.332;2024-01-16T01:37:15;4.75;;;1.98;;
83232;SDS011;73119;42.642;23.332;2024-01-16T01:39:41;2.83;;;2.45;;
83232;SDS011;73119;42.642;23.332;2024-01-16T01:42:07;4.38;;;3.50;;
83232;SDS011;73119;42.642;23.332;2024-01-16T01:44:33;3.25;;;2.15;;
83232;SDS011;73119;42.642;23.332;2024-01-16T01:46:59;8.60;;;3.85;;
83232;SDS011;73119;42.642;23.332;2024-01-16T01:49:25;11.02;;;3.63;;
83232;SDS011;73119;42.642;23.332;2024-01-16T01:51:52;5.55;;;3.15;;
83232;SDS011;73119;42.642;23.332;2024-01-16T01:54:18;5.93;;;3.15;;
83232;SDS011;73119;42.642;23.332;2024-01-16T01:56:46;9.68;;;4.15;;
83232;SDS011;73119;42.642;23.332;2024-01-16T01:59:13;2.83;;;1.98;;
83232;SDS011;73119;42.642;23.332;2024-01-16T02:01:40;5.47;;;2.80;;
83232;SDS011;73119;42.642;23.332;2024-01-16T02:04:06;6.03;;;3.17;;
83232;SDS011;73119;42.642;23.332;2024-01-16T02:06:32;4.35;;;3.17;;
83232;SDS011;73119;42.642;23.332;2024-01-16T02:08:58;7.72;;;3.63;;
83232;SDS011;73119;42.642;23.332;2024-01-16T02:11:25;8.82;;;4.10;;
83232;SDS011;73119;42.642;23.332;2024-01-16T02:13:51;7.35;;;2.85;;
83232;SDS011;73119;42.642;23.332;2024-01-16T02:16:26;8.82;;;3.03;;
83232;SDS011;73119;42.642;23.332;2024-01-16T02:18:52;3.88;;;2.75;;
83232;SDS011;73119;42.642;23.332;2024-01-16T02:21:22;3.47;;;2.53;;
83232;SDS011;73119;42.642;23.332;2024-01-16T02:23:48;2.88;;;2.03;;
83232;SDS011;73119;42.642;23.332;2024-01-16T02:26:14;2.88;;;1.80;;
83232;SDS011;73119;42.642;23.332;2024-01-16T02:28:41;6.15;;;3.53;;
83232;SDS011;73119;42.642;23.332;2024-01-16T02:31:07;5.70;;;2.40;;
83232;SDS011;73119;42.642;23.332;2024-01-16T02:33:33;3.50;;;1.95;;
83232;SDS011;73119;42.642;23.332;2024-01-16T02:35:59;4.32;;;2.38;;
83232;SDS011;73119;42.642;23.332;2024-01-16T02:38:25;5.75;;;2.95;;
83232;SDS011;73119;42.642;23.332;2024-01-16T02:40:51;4.13;;;2.38;;
83232;SDS011;73119;42.642;23.332;2024-01-16T02:43:17;4.35;;;3.10;;
83232;SDS011;73119;42.642;23.332;2024-01-16T02:45:43;3.78;;;2.42;;
83232;SDS011;73119;42.642;23.332;2024-01-16T02:48:09;6.72;;;2.72;;
83232;SDS011;73119;42.642;23.332;2024-01-16T02:50:35;6.68;;;3.00;;
83232;SDS011;73119;42.642;23.332;2024-01-16T02:53:02;3.75;;;2.15;;
83232;SDS011;73119;42.642;23.332;2024-01-16T02:55:28;3.15;;;2.08;;
83232;SDS011;73119;42.642;23.332;2024-01-16T02:57:54;5.13;;;2.90;;
83232;SDS011;73119;42.642;23.332;2024-01-16T03:00:20;3.28;;;2.25;;
83232;SDS011;73119;42.642;23.332;2024-01-16T03:02:47;4.88;;;3.05;;
83232;SDS011;73119;42.642;23.332;2024-01-16T03:05:14;4.22;;;3.38;;
83232;SDS011;73119;42.642;23.332;2024-01-16T03:07:40;6.00;;;3.15;;
83232;SDS011;73119;42.642;23.332;2024-01-16T03:10:06;4.00;;;2.58;;
83232;SDS011;73119;42.642;23.332;2024-01-16T03:12:33;5.10;;;3.50;;
83232;SDS011;73119;42.642;23.332;2024-01-16T03:14:59;4.55;;;3.35;;
83232;SDS011;73119;42.642;23.332;2024-01-16T03:17:25;5.03;;;2.95;;
83232;SDS011;73119;42.642;23.332;2024-01-16T03:19:51;4.47;;;2.35;;
83232;SDS011;73119;42.642;23.332;2024-01-16T03:22:17;5.40;;;3.33;;
83232;SDS011;73119;42.642;23.332;2024-01-16T03:24:44;4.18;;;2.47;;
83232;SDS011;73119;42.642;23.332;2024-01-16T03:27:11;7.88;;;3.10;;
83232;SDS011;73119;42.642;23.332;2024-01-16T03:29:37;4.72;;;3.08;;
83232;SDS011;73119;42.642;23.332;2024-01-16T03:32:03;5.82;;;3.15;;
83232;SDS011;73119;42.642;23.332;2024-01-16T03:34:30;3.85;;;2.90;;
83232;SDS011;73119;42.642;23.332;2024-01-16T03:36:56;4.75;;;2.42;;
83232;SDS011;73119;42.642;23.332;2024-01-16T03:39:23;6.65;;;2.30;;
83232;SDS011;73119;42.642;23.332;2024-01-16T03:41:49;2.40;;;1.55;;
83232;SDS011;73119;42.642;23.332;2024-01-16T03:44:15;2.92;;;1.23;;
83232;SDS011;73119;42.642;23.332;2024-01-16T03:46:41;5.30;;;2.40;;
83232;SDS011;73119;42.642;23.332;2024-01-16T03:49:07;3.03;;;1.98;;
83232;SDS011;73119;42.642;23.332;2024-01-16T03:51:33;1.67;;;1.17;;
83232;SDS011;73119;42.642;23.332;2024-01-16T03:53:59;3.08;;;2.35;;
83232;SDS011;73119;42.642;23.332;2024-01-16T03:56:25;4.20;;;2.45;;
83232;SDS011;73119;42.642;23.332;2024-01-16T03:58:51;2.22;;;1.27;;
83232;SDS011;73119;42.642;23.332;2024-01-16T04:01:17;2.90;;;1.83;;
83232;SDS011;73119;42.642;23.332;2024-01-16T04:03:43;1.98;;;1.50;;
83232;SDS011;73119;42.642;23.332;2024-01-16T04:06:26;2.25;;;1.45;;
83232;SDS011;73119;42.642;23.332;2024-01-16T04:35:25;1.45;;;1.08;;
83232;SDS011;73119;42.642;23.332;2024-01-16T04:37:51;1.90;;;1.48;;
83232;SDS011;73119;42.642;23.332;2024-01-16T04:40:17;1.92;;;1.30;;
83232;SDS011;73119;42.642;23.332;2024-01-16T04:42:43;1.70;;;0.98;;
83232;SDS011;73119;42.642;23.332;2024-01-16T04:45:09;1.55;;;1.05;;
83232;SDS011;73119;42.642;23.332;2024-01-16T04:47:35;1.75;;;1.02;;
83232;SDS011;73119;42.642;23.332;2024-01-16T04:50:01;0.98;;;0.95;;
83232;SDS011;73119;42.642;23.332;2024-01-16T04:52:28;2.40;;;0.95;;
83232;SDS011;73119;42.642;23.332;2024-01-16T04:54:54;1.48;;;1.05;;
83232;SDS011;73119;42.642;23.332;2024-01-16T04:57:20;2.42;;;1.25;;
83232;SDS011;73119;42.642;23.332;2024-01-16T04:59:46;2.17;;;1.23;;
83232;SDS011;73119;42.642;23.332;2024-01-16T05:02:12;0.88;;;0.80;;
83232;SDS011;73119;42.642;23.332;2024-01-16T05:04:40;2.35;;;1.40;;
83232;SDS011;73119;42.642;23.332;2024-01-16T05:07:06;2.03;;;1.40;;
83232;SDS011;73119;42.642;23.332;2024-01-16T05:09:32;1.38;;;0.80;;
83232;SDS011;73119;42.642;23.332;2024-01-16T05:11:58;1.58;;;1.48;;
83232;SDS011;73119;42.642;23.332;2024-01-16T05:14:24;1.20;;;0.98;;
83232;SDS011;73119;42.642;23.332;2024-01-16T05:16:50;2.58;;;1.52;;
83232;SDS011;73119;42.642;23.332;2024-01-16T05:19:16;1.42;;;1.20;;
83232;SDS011;73119;42.642;23.332;2024-01-16T05:21:42;1.70;;;1.38;;
83232;SDS011;73119;42.642;23.332;2024-01-16T05:24:08;2.13;;;1.23;;
83232;SDS011;73119;42.642;23.332;2024-01-16T05:26:35;0.95;;;0.70;;
83232;SDS011;73119;42.642;23.332;2024-01-16T05:29:01;1.67;;;1.35;;
83232;SDS011;73119;42.642;23.332;2024-01-16T05:34:32;1.35;;;1.15;;
83232;SDS011;73119;42.642;23.332;2024-01-16T05:36:58;1.70;;;1.17;;
83232;SDS011;73119;42.642;23.332;2024-01-16T05:39:24;1.20;;;1.08;;
83232;SDS011;73119;42.642;23.332;2024-01-16T05:41:50;1.60;;;1.02;;
83232;SDS011;73119;42.642;23.332;2024-01-16T05:44:16;0.63;;;0.52;;
83232;SDS011;73119;42.642;23.332;2024-01-16T05:46:42;1.40;;;1.05;;
83232;SDS011;73119;42.642;23.332;2024-01-16T05:49:08;1.00;;;0.70;;
83232;SDS011;73119;42.642;23.332;2024-01-16T05:51:36;1.08;;;0.90;;
83232;SDS011;73119;42.642;23.332;2024-01-16T05:54:02;1.50;;;0.90;;
83232;SDS011;73119;42.642;23.332;2024-01-16T05:56:28;1.17;;;0.90;;
83232;SDS011;73119;42.642;23.332;2024-01-16T05:58:54;1.13;;;0.75;;
83232;SDS011;73119;42.642;23.332;2024-01-16T06:01:20;1.35;;;1.23;;
83232;SDS011;73119;42.642;23.332;2024-01-16T06:03:46;0.50;;;0.40;;
83232;SDS011;73119;42.642;23.332;2024-01-16T06:06:13;1.30;;;1.15;;
83232;SDS011;73119;42.642;23.332;2024-01-16T06:08:39;1.23;;;1.10;;
83232;SDS011;73119;42.642;23.332;2024-01-16T06:11:06;0.80;;;0.60;;
83232;SDS011;73119;42.642;23.332;2024-01-16T06:13:32;1.30;;;0.98;;
83232;SDS011;73119;42.642;23.332;2024-01-16T06:15:58;0.77;;;0.65;;
83232;SDS011;73119;42.642;23.332;2024-01-16T06:18:24;2.92;;;2.20;;
83232;SDS011;73119;42.642;23.332;2024-01-16T06:20:50;1.73;;;1.23;;
83232;SDS011;73119;42.642;23.332;2024-01-16T06:23:16;3.65;;;2.03;;
83232;SDS011;73119;42.642;23.332;2024-01-16T06:25:43;3.05;;;2.05;;
83232;SDS011;73119;42.642;23.332;2024-01-16T06:28:10;3.65;;;1.95;;
83232;SDS011;73119;42.642;23.332;2024-01-16T06:30:36;1.40;;;1.08;;
83232;SDS011;73119;42.642;23.332;2024-01-16T06:33:02;1.70;;;1.20;;
83232;SDS011;73119;42.642;23.332;2024-01-16T06:35:29;1.23;;;0.93;;
83232;SDS011;73119;42.642;23.332;2024-01-16T06:37:55;1.23;;;1.10;;
83232;SDS011;73119;42.642;23.332;2024-01-16T06:40:21;1.30;;;1.00;;
83232;SDS011;73119;42.642;23.332;2024-01-16T06:42:47;2.65;;;1.83;;
83232;SDS011;73119;42.642;23.332;2024-01-16T06:45:13;2.72;;;1.33;;
83232;SDS011;73119;42.642;23.332;2024-01-16T06:47:40;2.17;;;1.63;;
83232;SDS011;73119;42.642;23.332;2024-01-16T06:50:07;2.60;;;1.75;;
83232;SDS011;73119;42.642;23.332;2024-01-16T06:52:35;1.63;;;1.30;;
83232;SDS011;73119;42.642;23.332;2024-01-16T06:55:01;2.80;;;1.73;;
83232;SDS011;73119;42.642;23.332;2024-01-16T06:57:28;3.17;;;1.77;;
83232;SDS011;73119;42.642;23.332;2024-01-16T06:59:54;1.83;;;1.52;;
83232;SDS011;73119;42.642;23.332;2024-01-16T07:02:20;1.67;;;1.38;;
83232;SDS011;73119;42.642;23.332;2024-01-16T07:04:47;0.98;;;0.80;;
83232;SDS011;73119;42.642;23.332;2024-01-16T07:07:13;1.60;;;0.80;;
83232;SDS011;73119;42.642;23.332;2024-01-16T07:09:39;3.85;;;1.55;;
83232;SDS011;73119;42.642;23.332;2024-01-16T07:12:05;1.25;;;1.13;;
83232;SDS011;73119;42.642;23.332;2024-01-16T07:14:32;1.10;;;1.00;;
83232;SDS011;73119;42.642;23.332;2024-01-16T07:16:58;2.10;;;1.13;;
83232;SDS011;73119;42.642;23.332;2024-01-16T07:19:24;1.20;;;1.10;;
83232;SDS011;73119;42.642;23.332;2024-01-16T07:21:50;1.23;;;1.13;;
83232;SDS011;73119;42.642;23.332;2024-01-16T07:24:17;1.33;;;0.82;;
83232;SDS011;73119;42.642;23.332;2024-01-16T07:26:45;1.80;;;1.60;;
83232;SDS011;73119;42.642;23.332;2024-01-16T07:29:11;3.22;;;1.63;;
83232;SDS011;73119;42.642;23.332;2024-01-16T07:31:38;1.70;;;0.88;;
83232;SDS011;73119;42.642;23.332;2024-01-16T07:34:04;0.57;;;0.50;;
83232;SDS011;73119;42.642;23.332;2024-01-16T07:36:30;0.65;;;0.60;;
83232;SDS011;73119;42.642;23.332;2024-01-16T07:38:56;3.38;;;1.30;;
83232;SDS011;73119;42.642;23.332;2024-01-16T07:41:22;0.35;;;0.32;;
83232;SDS011;73119;42.642;23.332;2024-01-16T07:43:48;1.50;;;0.98;;
83232;SDS011;73119;42.642;23.332;2024-01-16T07:46:14;1.40;;;0.95;;
83232;SDS011;73119;42.642;23.332;2024-01-16T07:48:41;1.83;;;1.40;;
83232;SDS011;73119;42.642;23.332;2024-01-16T07:51:07;1.30;;;1.00;;
83232;SDS011;73119;42.642;23.332;2024-01-16T07:53:33;1.05;;;0.70;;
83232;SDS011;73119;42.642;23.332;2024-01-16T07:55:59;1.25;;;0.95;;
83232;SDS011;73119;42.642;23.332;2024-01-16T07:58:25;2.15;;;1.23;;
83232;SDS011;73119;42.642;23.332;2024-01-16T08:00:51;1.23;;;0.93;;
83232;SDS011;73119;42.642;23.332;2024-01-16T08:03:17;1.35;;;1.02;;
83232;SDS011;73119;42.642;23.332;2024-01-16T08:05:43;4.57;;;1.13;;
83232;SDS011;73119;42.642;23.332;2024-01-16T08:08:10;0.55;;;0.52;;
83232;SDS011;73119;42.642;23.332;2024-01-16T08:10:37;1.67;;;1.35;;
83232;SDS011;73119;42.642;23.332;2024-01-16T08:13:03;3.03;;;1.35;;
83232;SDS011;73119;42.642;23.332;2024-01-16T08:15:29;1.80;;;1.13;;
83232;SDS011;73119;42.642;23.332;2024-01-16T08:17:55;1.35;;;1.00;;
83232;SDS011;73119;42.642;23.332;2024-01-16T08:20:23;2.42;;;1.25;;
83232;SDS011;73119;42.642;23.332;2024-01-16T08:22:50;2.70;;;1.75;;
83232;SDS011;73119;42.642;23.332;2024-01-16T08:25:16;4.25;;;1.83;;
83232;SDS011;73119;42.642;23.332;2024-01-16T08:27:42;2.03;;;1.02;;
83232;SDS011;73119;42.642;23.332;2024-01-16T08:30:09;2.15;;;1.42;;
83232;SDS011;73119;42.642;23.332;2024-01-16T08:32:38;1.98;;;1.40;;
83232;SDS011;73119;42.642;23.332;2024-01-16T08:35:04;3.63;;;2.30;;
83232;SDS011;73119;42.642;23.332;2024-01-16T08:37:33;1.65;;;1.30;;
83232;SDS011;73119;42.642;23.332;2024-01-16T08:40:00;2.75;;;1.20;;
83232;SDS011;73119;42.642;23.332;2024-01-16T08:42:27;1.98;;;1.30;;
83232;SDS011;73119;42.642;23.332;2024-01-16T08:44:54;1.17;;;0.93;;
83232;SDS011;73119;42.642;23.332;2024-01-16T08:47:20;0.77;;;0.65;;
83232;SDS011;73119;42.642;23.332;2024-01-16T08:49:46;1.88;;;1.20;;
83232;SDS011;73119;42.642;23.332;2024-01-16T08:52:14;1.42;;;0.80;;
83232;SDS011;73119;42.642;23.332;2024-01-16T08:54:41;2.40;;;1.05;;
83232;SDS011;73119;42.642;23.332;2024-01-16T08:57:07;1.60;;;1.33;;
83232;SDS011;73119;42.642;23.332;2024-01-16T08:59:35;0.90;;;0.82;;
83232;SDS011;73119;42.642;23.332;2024-01-16T09:02:01;1.38;;;0.52;;
83232;SDS011;73119;42.642;23.332;2024-01-16T09:04:28;1.30;;;0.90;;
83232;SDS011;73119;42.642;23.332;2024-01-16T09:06:55;9.23;;;3.88;;
83232;SDS011;73119;42.642;23.332;2024-01-16T09:09:21;2.55;;;1.40;;
83232;SDS011;73119;42.642;23.332;2024-01-16T09:11:47;2.40;;;0.93;;
83232;SDS011;73119;42.642;23.332;2024-01-16T09:14:13;0.75;;;0.50;;
83232;SDS011;73119;42.642;23.332;2024-01-16T09:16:39;0.45;;;0.40;;
83232;SDS011;73119;42.642;23.332;2024-01-16T09:19:06;1.40;;;1.25;;
83232;SDS011;73119;42.642;23.332;2024-01-16T09:21:32;1.13;;;1.02;;
83232;SDS011;73119;42.642;23.332;2024-01-16T09:23:58;0.98;;;0.88;;
83232;SDS011;73119;42.642;23.332;2024-01-16T09:26:24;0.55;;;0.55;;
83232;SDS011;73119;42.642;23.332;2024-01-16T09:28:50;2.45;;;1.40;;
83232;SDS011;73119;42.642;23.332;2024-01-16T09:31:16;0.57;;;0.57;;
83232;SDS011;73119;42.642;23.332;2024-01-16T09:33:42;2.00;;;1.00;;
83232;SDS011;73119;42.642;23.332;2024-01-16T09:36:08;0.43;;;0.43;;
83232;SDS011;73119;42.642;23.332;2024-01-16T09:38:36;5.63;;;0.95;;
83232;SDS011;73119;42.642;23.332;2024-01-16T09:41:02;1.13;;;1.02;;
83232;SDS011;73119;42.642;23.332;2024-01-16T09:43:28;1.02;;;1.00;;
83232;SDS011;73119;42.642;23.332;2024-01-16T09:45:57;6.43;;;0.88;;
83232;SDS011;73119;42.642;23.332;2024-01-16T09:48:27;2.35;;;1.13;;
83232;SDS011;73119;42.642;23.332;2024-01-16T09:50:54;0.75;;;0.60;;
83232;SDS011;73119;42.642;23.332;2024-01-16T09:53:20;0.35;;;0.35;;
83232;SDS011;73119;42.642;23.332;2024-01-16T09:55:47;0.88;;;0.68;;
83232;SDS011;73119;42.642;23.332;2024-01-16T09:58:17;2.20;;;0.98;;
83232;SDS011;73119;42.642;23.332;2024-01-16T10:00:44;1.80;;;0.85;;
83232;SDS011;73119;42.642;23.332;2024-01-16T10:03:13;1.35;;;1.13;;
83232;SDS011;73119;42.642;23.332;2024-01-16T10:05:40;1.33;;;0.82;;
83232;SDS011;73119;42.642;23.332;2024-01-16T10:08:08;0.93;;;0.77;;
83232;SDS011;73119;42.642;23.332;2024-01-16T10:10:34;2.08;;;1.10;;
83232;SDS011;73119;42.642;23.332;2024-01-16T10:13:00;1.63;;;1.35;;
83232;SDS011;73119;42.642;23.332;2024-01-16T10:15:26;1.73;;;0.90;;
83232;SDS011;73119;42.642;23.332;2024-01-16T10:17:52;2.65;;;1.30;;
83232;SDS011;73119;42.642;23.332;2024-01-16T10:20:31;1.67;;;0.95;;
83232;SDS011;73119;42.642;23.332;2024-01-16T10:22:59;1.33;;;0.93;;
83232;SDS011;73119;42.642;23.332;2024-01-16T10:25:25;1.73;;;0.98;;
83232;SDS011;73119;42.642;23.332;2024-01-16T10:28:09;1.42;;;0.90;;
83232;SDS011;73119;42.642;23.332;2024-01-16T10:30:36;1.23;;;0.85;;
83232;SDS011;73119;42.642;23.332;2024-01-16T10:33:16;2.13;;;1.02;;
83232;SDS011;73119;42.642;23.332;2024-01-16T10:35:42;1.52;;;1.05;;
83232;SDS011;73119;42.642;23.332;2024-01-16T10:38:08;6.78;;;4.03;;
83232;SDS011;73119;42.642;23.332;2024-01-16T10:40:34;1.90;;;1.33;;
83232;SDS011;73119;42.642;23.332;2024-01-16T10:43:03;1.63;;;1.30;;
83232;SDS011;73119;42.642;23.332;2024-01-16T10:45:29;11.73;;;5.93;;
83232;SDS011;73119;42.642;23.332;2024-01-16T10:48:05;0.63;;;0.63;;
83232;SDS011;73119;42.642;23.332;2024-01-16T10:50:32;14.95;;;5.60;;
83232;SDS011;73119;42.642;23.332;2024-01-16T10:52:59;4.47;;;2.10;;
83232;SDS011;73119;42.642;23.332;2024-01-16T10:55:27;2.70;;;1.48;;
83232;SDS011;73119;42.642;23.332;2024-01-16T11:00:20;2.53;;;1.65;;
83232;SDS011;73119;42.642;23.332;2024-01-16T11:02:51;1.25;;;0.85;;
83232;SDS011;73119;42.642;23.332;2024-01-16T11:05:20;19.55;;;7.43;;
83232;SDS011;73119;42.642;23.332;2024-01-16T11:07:47;19.30;;;7.15;;
83232;SDS011;73119;42.642;23.332;2024-01-16T11:10:13;3.15;;;1.00;;
83232;SDS011;73119;42.642;23.332;2024-01-16T11:12:39;3.55;;;1.38;;
83232;SDS011;73119;42.642;23.332;2024-01-16T11:15:06;1.98;;;1.40;;
83232;SDS011;73119;42.642;23.332;2024-01-16T11:17:33;1.90;;;1.15;;
83232;SDS011;73119;42.642;23.332;2024-01-16T11:20:01;1.38;;;1.17;;
83232;SDS011;73119;42.642;23.332;2024-01-16T11:22:31;2.13;;;0.98;;
83232;SDS011;73119;42.642;23.332;2024-01-16T11:25:08;2.35;;;1.45;;
83232;SDS011;73119;42.642;23.332;2024-01-16T11:27:35;2.80;;;1.48;;
83232;SDS011;73119;42.642;23.332;2024-01-16T11:30:02;3.83;;;1.55;;
83232;SDS011;73119;42.642;23.332;2024-01-16T11:32:42;2.05;;;0.60;;
83232;SDS011;73119;42.642;23.332;2024-01-16T11:35:10;2.45;;;1.42;;
83232;SDS011;73119;42.642;23.332;2024-01-16T11:37:41;2.72;;;1.40;;
83232;SDS011;73119;42.642;23.332;2024-01-16T11:42:46;2.72;;;1.55;;
83232;SDS011;73119;42.642;23.332;2024-01-16T11:50:34;7.30;;;3.72;;
83232;SDS011;73119;42.642;23.332;2024-01-16T11:53:01;11.55;;;5.93;;
83232;SDS011;73119;42.642;23.332;2024-01-16T11:55:27;5.30;;;3.25;;
83232;SDS011;73119;42.642;23.332;2024-01-16T12:00:32;1.42;;;1.05;;
83232;SDS011;73119;42.642;23.332;2024-01-16T12:02:58;1.50;;;1.00;;
83232;SDS011;73119;42.642;23.332;2024-01-16T12:05:26;3.83;;;2.28;;
83232;SDS011;73119;42.642;23.332;2024-01-16T12:07:53;1.48;;;1.10;;
83232;SDS011;73119;42.642;23.332;2024-01-16T12:10:20;2.45;;;1.33;;
83232;SDS011;73119;42.642;23.332;2024-01-16T12:12:47;3.20;;;1.63;;
83232;SDS011;73119;42.642;23.332;2024-01-16T12:15:18;3.10;;;1.88;;
83232;SDS011;73119;42.642;23.332;2024-01-16T12:17:54;2.88;;;1.85;;
83232;SDS011;73119;42.642;23.332;2024-01-16T12:20:20;2.10;;;1.45;;
83232;SDS011;73119;42.642;23.332;2024-01-16T12:22:56;3.33;;;1.83;;
83232;SDS011;73119;42.642;23.332;2024-01-16T12:25:23;2.92;;;1.27;;
83232;SDS011;73119;42.642;23.332;2024-01-16T12:28:04;2.97;;;1.83;;
83232;SDS011;73119;42.642;23.332;2024-01-16T12:30:31;1.52;;;1.20;;
83232;SDS011;73119;42.642;23.332;2024-01-16T12:33:11;3.08;;;1.65;;
83232;SDS011;73119;42.642;23.332;2024-01-16T12:38:04;3.63;;;1.20;;
83232;SDS011;73119;42.642;23.332;2024-01-16T12:40:32;1.48;;;1.25;;
83232;SDS011;73119;42.642;23.332;2024-01-16T12:43:00;1.00;;;0.75;;
83232;SDS011;73119;42.642;23.332;2024-01-16T12:45:27;2.65;;;1.35;;
83232;SDS011;73119;42.642;23.332;2024-01-16T12:47:54;2.72;;;1.80;;
83232;SDS011;73119;42.642;23.332;2024-01-16T12:50:23;3.65;;;2.47;;
83232;SDS011;73119;42.642;23.332;2024-01-16T12:55:28;1.88;;;1.02;;
83232;SDS011;73119;42.642;23.332;2024-01-16T13:00:39;1.23;;;0.93;;
83232;SDS011;73119;42.642;23.332;2024-01-16T13:03:05;3.63;;;1.10;;
83232;SDS011;73119;42.642;23.332;2024-01-16T13:05:31;2.35;;;1.30;;
83232;SDS011;73119;42.642;23.332;2024-01-16T13:08:04;2.67;;;1.23;;
83232;SDS011;73119;42.642;23.332;2024-01-16T13:10:30;3.90;;;1.30;;
83232;SDS011;73119;42.642;23.332;2024-01-16T13:13:15;1.88;;;1.52;;
83232;SDS011;73119;42.642;23.332;2024-01-16T13:15:42;1.17;;;0.98;;
83232;SDS011;73119;42.642;23.332;2024-01-16T13:18:20;3.47;;;1.80;;
83232;SDS011;73119;42.642;23.332;2024-01-16T13:20:50;2.65;;;1.48;;
83232;SDS011;73119;42.642;23.332;2024-01-16T13:23:16;4.13;;;1.60;;
83232;SDS011;73119;42.642;23.332;2024-01-16T13:25:43;2.15;;;1.42;;
83232;SDS011;73119;42.642;23.332;2024-01-16T13:28:10;2.95;;;1.35;;
83232;SDS011;73119;42.642;23.332;2024-01-16T13:30:36;4.63;;;1.90;;
83232;SDS011;73119;42.642;23.332;2024-01-16T13:33:03;4.47;;;3.13;;
83232;SDS011;73119;42.642;23.332;2024-01-16T13:35:30;7.65;;;4.13;;
83232;SDS011;73119;42.642;23.332;2024-01-16T13:37:56;3.22;;;2.78;;
83232;SDS011;73119;42.642;23.332;2024-01-16T13:40:23;3.03;;;1.90;;
83232;SDS011;73119;42.642;23.332;2024-01-16T13:42:49;2.85;;;1.38;;
83232;SDS011;73119;42.642;23.332;2024-01-16T13:45:15;7.63;;;2.78;;
83232;SDS011;73119;42.642;23.332;2024-01-16T13:47:43;1.65;;;1.15;;
83232;SDS011;73119;42.642;23.332;2024-01-16T13:50:12;5.70;;;2.38;;
83232;SDS011;73119;42.642;23.332;2024-01-16T13:52:38;2.45;;;1.67;;
83232;SDS011;73119;42.642;23.332;2024-01-16T13:55:07;3.30;;;2.55;;
83232;SDS011;73119;42.642;23.332;2024-01-16T13:57:33;2.28;;;1.58;;
83232;SDS011;73119;42.642;23.332;2024-01-16T14:00:02;3.30;;;1.90;;
83232;SDS011;73119;42.642;23.332;2024-01-16T14:02:29;3.05;;;2.00;;
83232;SDS011;73119;42.642;23.332;2024-01-16T14:04:56;4.40;;;3.17;;
83232;SDS011;73119;42.642;23.332;2024-01-16T14:07:22;6.13;;;3.58;;
83232;SDS011;73119;42.642;23.332;2024-01-16T14:09:48;4.20;;;2.05;;
83232;SDS011;73119;42.642;23.332;2024-01-16T14:12:14;4.43;;;2.80;;
83232;SDS011;73119;42.642;23.332;2024-01-16T14:14:41;2.55;;;1.65;;
83232;SDS011;73119;42.642;23.332;2024-01-16T14:17:07;3.08;;;1.88;;
83232;SDS011;73119;42.642;23.332;2024-01-16T14:19:36;2.75;;;1.95;;
83232;SDS011;73119;42.642;23.332;2024-01-16T14:22:03;2.67;;;1.85;;
83232;SDS011;73119;42.642;23.332;2024-01-16T14:24:29;2.28;;;1.48;;
83232;SDS011;73119;42.642;23.332;2024-01-16T14:26:55;3.53;;;1.70;;
83232;SDS011;73119;42.642;23.332;2024-01-16T14:29:22;2.85;;;2.22;;
83232;SDS011;73119;42.642;23.332;2024-01-16T14:31:48;2.55;;;1.88;;
83232;SDS011;73119;42.642;23.332;2024-01-16T14:34:14;6.70;;;2.35;;
83232;SDS011;73119;42.642;23.332;2024-01-16T14:36:41;3.33;;;1.95;;
83232;SDS011;73119;42.642;23.332;2024-01-16T14:39:07;2.97;;;2.15;;
83232;SDS011;73119;42.642;23.332;2024-01-16T14:41:41;2.55;;;1.92;;
83232;SDS011;73119;42.642;23.332;2024-01-16T14:44:09;3.20;;;2.15;;
83232;SDS011;73119;42.642;23.332;2024-01-16T14:46:35;3.40;;;2.25;;
83232;SDS011;73119;42.642;23.332;2024-01-16T14:49:01;3.20;;;2.42;;
83232;SDS011;73119;42.642;23.332;2024-01-16T14:51:27;4.90;;;2.15;;
83232;SDS011;73119;42.642;23.332;2024-01-16T14:53:54;3.38;;;2.00;;
83232;SDS011;73119;42.642;23.332;2024-01-16T14:56:20;4.50;;;1.67;;
83232;SDS011;73119;42.642;23.332;2024-01-16T14:58:46;4.70;;;2.25;;
83232;SDS011;73119;42.642;23.332;2024-01-16T15:01:13;18.02;;;8.65;;
83232;SDS011;73119;42.642;23.332;2024-01-16T15:03:41;3.15;;;2.00;;
83232;SDS011;73119;42.642;23.332;2024-01-16T15:06:07;3.88;;;2.30;;
83232;SDS011;73119;42.642;23.332;2024-01-16T15:08:38;4.13;;;2.30;;
83232;SDS011;73119;42.642;23.332;2024-01-16T15:11:04;8.68;;;1.88;;
83232;SDS011;73119;42.642;23.332;2024-01-16T15:13:31;2.92;;;1.45;;
83232;SDS011;73119;42.642;23.332;2024-01-16T15:15:57;2.92;;;1.92;;
83232;SDS011;73119;42.642;23.332;2024-01-16T15:18:23;2.97;;;2.00;;
83232;SDS011;73119;42.642;23.332;2024-01-16T15:20:49;3.28;;;2.22;;
83232;SDS011;73119;42.642;23.332;2024-01-16T15:23:16;4.57;;;1.73;;
83232;SDS011;73119;42.642;23.332;2024-01-16T15:25:42;3.20;;;1.88;;